createdAt,value
2022-08-17T00:01:56.046Z,29.60
2022-08-17T00:04:26.692Z,33.60
2022-08-17T00:06:57.414Z,31.17
2022-08-17T00:09:27.569Z,31.20
2022-08-17T00:12:34.831Z,32.00
2022-08-17T00:14:50.538Z,33.03
2022-08-17T00:17:23.268Z,32.75
2022-08-17T00:19:53.392Z,30.02
2022-08-17T00:22:31.395Z,32.60
2022-08-17T00:25:08.901Z,30.55
2022-08-17T00:27:39.820Z,30.98
2022-08-17T00:30:13.424Z,32.60
2022-08-17T00:33:23.449Z,32.75
2022-08-17T00:35:41.297Z,35.28
2022-08-17T00:38:12.469Z,34.97
2022-08-17T00:40:45.663Z,34.78
2022-08-17T00:43:21.844Z,35.78
2022-08-17T00:45:52.427Z,31.48
2022-08-17T00:48:29.340Z,37.03
2022-08-17T00:51:04.725Z,35.55
2022-08-17T00:53:37.896Z,34.47
2022-08-17T00:56:11.085Z,31.33
2022-08-17T00:58:42.215Z,35.22
2022-08-17T01:01:21.999Z,31.42
2022-08-17T01:03:59.816Z,32.28
2022-08-17T01:06:31.393Z,35.72
2022-08-17T01:09:03.718Z,34.00
2022-08-17T01:11:36.498Z,33.40
2022-08-17T01:14:07.915Z,35.03
2022-08-17T01:16:38.678Z,33.03
2022-08-17T01:19:18.073Z,35.03
2022-08-17T01:21:55.870Z,36.88
2022-08-17T01:24:28.569Z,34.67
2022-08-17T01:26:58.764Z,35.35
2022-08-17T01:29:31.072Z,32.15
2022-08-17T01:32:05.198Z,36.30
2022-08-17T01:34:37.355Z,34.30
2022-08-17T01:37:14.132Z,34.88
2022-08-17T01:39:50.598Z,36.15
2022-08-17T01:42:27.283Z,33.88
2022-08-17T01:45:01.937Z,37.85
2022-08-17T01:47:32.608Z,34.75
2022-08-17T01:50:12.301Z,38.05
2022-08-17T01:52:43.276Z,35.92
2022-08-17T01:55:18.731Z,39.13
2022-08-17T01:57:49.012Z,38.33
2022-08-17T02:00:19.649Z,39.10
2022-08-17T02:02:50.150Z,37.70
2022-08-17T02:05:21.263Z,41.15
2022-08-17T02:08:00.628Z,39.92
2022-08-17T02:10:34.778Z,40.65
2022-08-17T02:13:06.713Z,40.45
2022-08-17T02:15:37.509Z,40.60
2022-08-17T02:18:09.075Z,45.47
2022-08-17T02:20:42.620Z,40.53
2022-08-17T02:23:14.746Z,36.05
2022-08-17T02:25:50.679Z,38.40
2022-08-17T02:28:21.445Z,38.90
2022-08-17T02:31:01.411Z,34.13
2022-08-17T02:33:42.019Z,36.85
2022-08-17T02:36:14.886Z,36.08
2022-08-17T02:38:45.463Z,40.47
2022-08-17T02:41:18.949Z,36.08
2022-08-17T02:43:49.047Z,36.33
2022-08-17T02:46:19.658Z,36.15
2022-08-17T02:48:49.922Z,33.50
2022-08-17T02:51:20.362Z,35.35
2022-08-17T02:53:50.669Z,33.92
2022-08-17T02:56:23.346Z,36.42
2022-08-17T02:58:53.399Z,34.25
2022-08-17T03:01:23.608Z,32.47
2022-08-17T03:03:53.747Z,31.02
2022-08-17T03:06:23.796Z,31.25
2022-08-17T03:08:54.800Z,30.63
2022-08-17T03:11:27.471Z,33.67
2022-08-17T03:13:58.691Z,33.40
2022-08-17T03:16:28.807Z,34.80
2022-08-17T03:18:58.937Z,32.85
2022-08-17T03:21:28.992Z,31.73
2022-08-17T03:23:59.095Z,33.85
2022-08-17T03:26:32.525Z,37.23
2022-08-17T03:29:02.777Z,38.67
2022-08-17T03:31:33.716Z,38.50
2022-08-17T03:34:07.332Z,38.42
2022-08-17T03:36:37.396Z,40.33
2022-08-17T03:39:07.687Z,42.13
2022-08-17T03:41:40.566Z,37.17
2022-08-17T03:44:10.720Z,43.50
2022-08-17T03:46:53.178Z,38.72
2022-08-17T03:49:35.692Z,35.78
2022-08-17T03:52:18.848Z,39.95
2022-08-17T03:55:01.460Z,42.53
2022-08-17T03:57:34.818Z,40.55
2022-08-17T04:00:05.174Z,40.95
2022-08-17T04:02:36.809Z,40.13
2022-08-17T04:05:07.642Z,37.80
2022-08-17T04:07:37.778Z,39.08
2022-08-17T04:10:08.853Z,43.25
2022-08-17T04:12:53.007Z,41.00
2022-08-17T04:15:24.137Z,38.78
2022-08-17T04:17:54.747Z,39.78
2022-08-17T04:20:27.715Z,41.45
2022-08-17T04:23:02.825Z,37.90
2022-08-17T04:25:36.538Z,40.90
2022-08-17T04:28:16.019Z,37.60
2022-08-17T04:30:48.132Z,38.15
2022-08-17T04:33:20.677Z,39.63
2022-08-17T04:35:52.990Z,41.50
2022-08-17T04:38:25.001Z,36.20
2022-08-17T04:41:08.143Z,43.60
2022-08-17T04:43:43.088Z,40.60
2022-08-17T04:46:17.504Z,39.13
2022-08-17T04:48:50.141Z,40.95
2022-08-17T04:51:22.879Z,39.38
2022-08-17T04:53:55.002Z,40.13
2022-08-17T04:56:26.325Z,40.10
2022-08-17T04:59:01.248Z,39.33
2022-08-17T05:01:33.997Z,38.45
2022-08-17T05:04:21.476Z,40.42
2022-08-17T05:06:58.110Z,40.15
2022-08-17T05:09:28.303Z,41.55
2022-08-17T05:11:58.429Z,43.47
2022-08-17T05:14:33.329Z,41.03
2022-08-17T05:17:10.840Z,41.55
2022-08-17T05:19:41.794Z,43.83
2022-08-17T05:22:11.932Z,45.97
2022-08-17T05:24:43.633Z,44.03
2022-08-17T05:27:23.774Z,41.70
2022-08-17T05:29:56.651Z,41.95
2022-08-17T05:32:38.701Z,43.08
2022-08-17T05:37:40.739Z,48.75
2022-08-17T05:40:12.303Z,43.70
2022-08-17T05:42:42.461Z,45.72
2022-08-17T05:45:15.893Z,41.88
2022-08-17T05:47:53.932Z,45.08
2022-08-17T05:50:29.799Z,43.72
2022-08-17T05:53:06.269Z,49.28
2022-08-17T05:55:47.140Z,43.30
2022-08-17T05:58:26.525Z,45.83
2022-08-17T06:01:10.638Z,43.20
2022-08-17T06:03:50.906Z,42.83
2022-08-17T06:06:31.564Z,42.83
2022-08-17T06:09:11.774Z,46.90
2022-08-17T06:11:53.432Z,41.20
2022-08-17T06:14:47.730Z,36.95
2022-08-17T06:17:23.739Z,52.60
2022-08-17T06:19:57.519Z,41.17
2022-08-17T06:22:35.869Z,39.17
2022-08-17T06:25:11.852Z,38.60
2022-08-17T06:27:45.887Z,37.67
2022-08-17T06:30:18.244Z,39.55
2022-08-17T06:32:52.889Z,41.45
2022-08-17T06:35:31.944Z,41.30
2022-08-17T06:38:21.813Z,42.22
2022-08-17T06:41:12.551Z,42.92
2022-08-17T06:43:56.876Z,44.13
2022-08-17T06:46:32.392Z,39.20
2022-08-17T06:49:17.850Z,53.53
2022-08-17T06:51:54.615Z,69.63
2022-08-17T06:54:36.573Z,45.85
2022-08-17T06:57:15.430Z,39.13
2022-08-17T06:59:56.134Z,45.30
2022-08-17T07:02:53.291Z,40.33
2022-08-17T07:05:33.429Z,40.45
2022-08-17T07:08:09.417Z,39.22
2022-08-17T07:10:43.417Z,41.53
2022-08-17T07:13:36.223Z,44.65
2022-08-17T07:16:15.641Z,44.53
2022-08-17T07:18:46.178Z,42.72
2022-08-17T07:21:29.277Z,46.47
2022-08-17T07:24:06.473Z,40.28
2022-08-17T07:26:38.968Z,41.22
2022-08-17T07:29:09.462Z,37.88
2022-08-17T07:31:39.773Z,40.47
2022-08-17T07:34:15.426Z,40.22
2022-08-17T07:36:47.996Z,42.03
2022-08-17T07:39:30.166Z,42.22
2022-08-17T07:42:06.128Z,41.72
2022-08-17T07:44:56.785Z,38.95
2022-08-17T07:47:39.314Z,42.38
2022-08-17T07:50:27.720Z,38.97
2022-08-17T07:53:01.182Z,47.50
2022-08-17T07:55:35.099Z,39.53
2022-08-17T07:58:05.645Z,40.70
2022-08-17T08:00:37.334Z,42.42
2022-08-17T08:03:18.040Z,42.97
2022-08-17T08:05:57.974Z,42.05
2022-08-17T08:08:35.264Z,41.13
2022-08-17T08:11:09.065Z,46.45
2022-08-17T08:13:45.238Z,41.25
2022-08-17T08:16:22.804Z,40.22
2022-08-17T08:18:57.345Z,42.88
2022-08-17T08:21:49.907Z,41.72
2022-08-17T08:24:41.175Z,42.50
2022-08-17T08:27:31.975Z,45.60
2022-08-17T08:30:09.487Z,39.47
2022-08-17T08:32:50.934Z,47.70
2022-08-17T08:35:29.736Z,42.88
2022-08-17T08:38:09.877Z,40.17
2022-08-17T08:40:53.322Z,35.15
2022-08-17T08:46:06.666Z,37.03
2022-08-17T08:49:09.989Z,39.50
2022-08-17T08:51:55.721Z,35.97
2022-08-17T08:54:38.759Z,32.10
2022-08-17T08:57:29.171Z,35.92
2022-08-17T09:00:10.264Z,35.10
2022-08-17T09:03:15.071Z,34.03
2022-08-17T09:06:03.007Z,33.90
2022-08-17T09:08:46.531Z,31.98
2022-08-17T09:11:27.623Z,30.17
2022-08-17T09:14:21.157Z,31.33
2022-08-17T09:17:07.491Z,33.55
2022-08-17T09:19:42.163Z,30.60
2022-08-17T09:22:31.566Z,29.10
2022-08-17T09:25:09.784Z,30.38
2022-08-17T09:27:51.581Z,32.20
2022-08-17T09:30:25.169Z,33.20
2022-08-17T09:33:00.072Z,33.17
2022-08-17T09:35:41.726Z,35.13
2022-08-17T09:38:23.743Z,31.88
2022-08-17T09:40:59.154Z,32.08
2022-08-17T09:43:38.494Z,37.75
2022-08-17T09:46:19.428Z,37.58
2022-08-17T09:48:55.482Z,36.30
2022-08-17T09:51:33.179Z,36.45
2022-08-17T09:54:34.977Z,37.33
2022-08-17T09:57:27.908Z,38.72
2022-08-17T10:00:12.060Z,38.90
2022-08-17T10:03:21.100Z,40.30
2022-08-17T10:05:59.548Z,42.75
2022-08-17T10:08:39.198Z,43.88
2022-08-17T10:11:45.731Z,39.28
2022-08-17T10:14:37.381Z,33.95
2022-08-17T10:17:24.544Z,32.25
2022-08-17T10:20:01.572Z,30.95
2022-08-17T10:22:55.141Z,34.17
2022-08-17T10:25:54.012Z,30.95
2022-08-17T10:28:30.001Z,30.73
2022-08-17T10:34:38.803Z,33.63
2022-08-17T10:37:28.412Z,31.88
2022-08-17T10:40:26.885Z,27.60
2022-08-17T10:43:02.128Z,24.30
2022-08-17T10:45:39.165Z,25.55
2022-08-17T10:48:28.646Z,24.63
2022-08-17T10:51:07.608Z,25.13
2022-08-17T10:53:53.709Z,24.15
2022-08-17T10:56:53.247Z,21.92
2022-08-17T10:59:51.044Z,19.67
2022-08-17T11:02:31.708Z,18.60
2022-08-17T11:05:14.330Z,19.77
2022-08-17T11:08:05.358Z,18.77
2022-08-17T11:10:57.438Z,27.70
2022-08-17T11:13:45.254Z,18.38
2022-08-17T11:16:35.695Z,15.98
2022-08-17T11:19:44.093Z,20.92
2022-08-17T11:22:43.823Z,15.77
2022-08-17T11:25:18.635Z,18.17
2022-08-17T11:27:53.943Z,18.92
2022-08-17T11:30:48.970Z,17.95
2022-08-17T11:33:59.408Z,16.92
2022-08-17T11:36:53.509Z,18.33
2022-08-17T11:39:45.405Z,19.67
2022-08-17T11:42:31.107Z,19.55
2022-08-17T11:45:04.077Z,21.25
2022-08-17T11:48:16.385Z,20.35
2022-08-17T11:51:05.845Z,19.52
2022-08-17T12:00:58.610Z,24.50
2022-08-17T12:03:57.020Z,21.15
2022-08-17T12:06:49.573Z,22.25
2022-08-17T12:09:24.921Z,21.88
2022-08-17T12:12:12.384Z,19.80
2022-08-17T12:15:09.669Z,22.38
2022-08-17T12:17:42.603Z,21.33
2022-08-17T12:20:24.283Z,22.30
2022-08-17T12:23:04.344Z,21.30
2022-08-17T12:25:40.955Z,21.27
2022-08-17T12:28:23.965Z,23.38
2022-08-17T12:30:55.207Z,21.17
2022-08-17T12:33:29.040Z,24.60
2022-08-17T12:36:05.696Z,23.98
2022-08-17T12:38:39.333Z,26.83
2022-08-17T12:41:24.022Z,25.45
2022-08-17T12:44:02.406Z,26.15
2022-08-17T12:46:36.183Z,26.23
2022-08-17T12:49:18.315Z,26.27
2022-08-17T12:51:52.010Z,28.50
2022-08-17T12:54:30.581Z,27.17
2022-08-17T12:57:05.625Z,25.92
2022-08-17T12:59:35.873Z,25.17
2022-08-17T13:04:36.492Z,25.38
2022-08-17T13:07:09.255Z,25.48
2022-08-17T13:09:40.409Z,26.95
2022-08-17T13:12:11.389Z,26.48
2022-08-17T13:17:29.404Z,23.50
2022-08-17T13:20:00.164Z,21.73
2022-08-17T13:22:34.465Z,24.10
2022-08-17T13:25:09.479Z,22.77
2022-08-17T13:27:39.866Z,25.38
2022-08-17T13:30:15.036Z,26.88
2022-08-17T13:32:47.451Z,24.40
2022-08-17T13:35:47.125Z,25.67
2022-08-17T13:38:44.048Z,25.33
2022-08-17T13:41:33.749Z,28.92
2022-08-17T13:44:04.425Z,25.55
2022-08-17T13:46:35.935Z,28.70
2022-08-17T13:49:09.689Z,25.98
2022-08-17T13:51:45.915Z,28.30
2022-08-17T13:54:29.769Z,29.60
2022-08-17T13:57:03.354Z,28.75
2022-08-17T13:59:53.298Z,26.17
2022-08-17T14:02:28.580Z,26.48
2022-08-17T14:05:01.979Z,25.45
2022-08-17T14:07:38.282Z,21.58
2022-08-17T14:10:16.270Z,22.40
2022-08-17T14:12:50.325Z,22.63
2022-08-17T14:15:22.715Z,21.33
2022-08-17T14:17:53.334Z,18.88
2022-08-17T14:20:25.420Z,22.63
2022-08-17T14:22:58.314Z,22.83
2022-08-17T14:25:32.511Z,21.73
2022-08-17T14:28:04.692Z,20.60
2022-08-17T14:30:35.657Z,18.02
2022-08-17T14:33:06.138Z,17.42
2022-08-17T14:35:36.973Z,15.43
2022-08-17T14:40:41.125Z,14.80
2022-08-17T14:43:11.287Z,16.17
2022-08-17T14:45:41.371Z,16.35
2022-08-17T14:48:11.491Z,14.85
2022-08-17T14:50:44.107Z,19.30
2022-08-17T14:53:17.194Z,16.20
2022-08-17T14:55:52.674Z,17.50
2022-08-17T14:58:23.644Z,16.25
2022-08-17T15:00:53.720Z,16.42
2022-08-17T15:03:23.769Z,17.15
2022-08-17T15:05:54.007Z,20.38
2022-08-17T15:08:24.101Z,24.13
2022-08-17T15:10:56.821Z,26.50
2022-08-17T15:13:28.868Z,30.63
2022-08-17T15:15:59.981Z,32.40
2022-08-17T15:18:30.405Z,33.08
2022-08-17T15:21:00.694Z,35.95
2022-08-17T15:23:31.110Z,39.72
2022-08-17T15:26:03.805Z,42.05
2022-08-17T15:28:33.957Z,41.20
2022-08-17T15:31:04.048Z,36.88
2022-08-17T15:33:34.201Z,38.85
2022-08-17T15:36:06.572Z,37.20
2022-08-17T15:38:39.623Z,42.05
2022-08-17T15:41:15.457Z,39.83
2022-08-17T15:43:45.869Z,42.75
2022-08-17T15:46:18.974Z,37.85
2022-08-17T15:48:51.201Z,36.42
2022-08-17T15:51:24.109Z,28.75
2022-08-17T15:53:57.505Z,35.65
2022-08-17T15:56:31.732Z,31.95
2022-08-17T15:59:02.390Z,28.88
2022-08-17T16:04:30.017Z,26.88
2022-08-17T16:07:01.641Z,27.85
2022-08-17T16:09:31.834Z,28.70
2022-08-17T16:12:12.104Z,22.75
2022-08-17T16:14:42.293Z,25.45
2022-08-17T16:17:40.310Z,33.63
2022-08-17T16:20:03.101Z,28.77
2022-08-17T16:22:35.621Z,29.77
2022-08-17T16:25:08.985Z,28.33
2022-08-17T16:27:41.799Z,30.90
2022-08-17T16:30:17.546Z,31.52
2022-08-17T16:32:48.406Z,30.25
2022-08-17T16:35:18.877Z,30.00
2022-08-17T16:37:49.099Z,28.10
2022-08-17T16:40:19.962Z,31.48
2022-08-17T16:42:53.289Z,27.83
2022-08-17T16:45:26.381Z,27.58
2022-08-17T16:48:01.835Z,23.98
2022-08-17T16:50:32.189Z,30.02
2022-08-17T16:53:11.019Z,29.42
2022-08-17T16:55:43.565Z,26.88
2022-08-17T16:58:16.978Z,26.38
2022-08-17T17:00:49.007Z,27.75
2022-08-17T17:03:22.983Z,26.98
2022-08-17T17:06:06.355Z,26.23
2022-08-17T17:11:18.726Z,30.42
2022-08-17T17:13:56.641Z,32.55
2022-08-17T17:16:37.913Z,32.15
2022-08-17T17:19:14.276Z,30.85
2022-08-17T17:21:49.706Z,29.88
2022-08-17T17:24:28.840Z,30.23
2022-08-17T17:27:18.637Z,33.05
2022-08-17T17:30:02.411Z,31.42
2022-08-17T17:32:40.396Z,33.03
2022-08-17T17:35:18.417Z,35.42
2022-08-17T17:37:49.902Z,35.17
2022-08-17T17:40:24.795Z,30.45
2022-08-17T17:43:05.451Z,36.88
2022-08-17T17:45:52.272Z,36.50
2022-08-17T17:48:22.452Z,37.65
2022-08-17T17:51:03.835Z,33.03
2022-08-17T17:53:43.934Z,32.00
2022-08-17T17:56:42.937Z,30.90
2022-08-17T17:59:23.090Z,33.67
2022-08-17T18:02:05.625Z,32.63
2022-08-17T18:04:42.030Z,32.47
2022-08-17T18:07:23.087Z,29.42
2022-08-17T18:10:19.511Z,30.75
2022-08-17T18:13:04.678Z,30.60
2022-08-17T18:15:40.000Z,31.75
2022-08-17T18:18:40.373Z,30.45
2022-08-17T18:21:20.593Z,31.45
2022-08-17T18:23:55.247Z,32.30
2022-08-17T18:26:41.846Z,31.85
2022-08-17T18:29:25.986Z,31.00
2022-08-17T18:32:28.079Z,31.88
2022-08-17T18:35:04.816Z,26.30
2022-08-17T18:37:46.016Z,28.48
2022-08-17T18:40:39.017Z,29.45
2022-08-17T18:43:16.688Z,30.00
2022-08-17T18:45:50.665Z,28.95
2022-08-17T18:48:33.024Z,27.70
2022-08-17T18:51:26.295Z,29.15
2022-08-17T18:54:20.741Z,28.10
2022-08-17T18:56:56.638Z,25.63
2022-08-17T18:59:35.985Z,25.48
2022-08-17T19:02:40.374Z,23.60
2022-08-17T19:05:28.872Z,26.65
2022-08-17T19:08:20.369Z,26.55
2022-08-17T19:10:53.162Z,30.08
2022-08-17T19:13:27.487Z,28.17
2022-08-17T19:16:13.743Z,27.85
2022-08-17T19:18:52.125Z,23.65
2022-08-17T19:21:26.315Z,24.08
2022-08-17T19:24:05.752Z,23.08
2022-08-17T19:26:53.586Z,27.65
2022-08-17T19:29:34.341Z,23.80
2022-08-17T19:32:05.407Z,24.40
2022-08-17T19:34:38.156Z,25.85
2022-08-17T19:37:15.149Z,24.00
2022-08-17T19:39:54.132Z,23.75
2022-08-17T19:42:37.508Z,23.65
2022-08-17T19:45:16.586Z,24.13
2022-08-17T19:47:57.086Z,24.13
2022-08-17T19:50:41.539Z,24.00
2022-08-17T19:53:23.595Z,23.88
2022-08-17T19:56:03.385Z,25.38
2022-08-17T19:58:51.542Z,26.35
2022-08-17T20:01:34.444Z,24.70
2022-08-17T20:04:12.851Z,26.42
2022-08-17T20:06:48.014Z,27.50
2022-08-17T20:09:23.868Z,27.58
2022-08-17T20:12:08.414Z,27.98
2022-08-17T20:14:53.374Z,25.88
2022-08-17T20:17:28.261Z,28.70
2022-08-17T20:20:07.551Z,28.58
2022-08-17T20:22:57.020Z,29.38
2022-08-17T20:25:34.465Z,42.42
2022-08-17T20:28:18.302Z,40.85
2022-08-17T20:30:48.592Z,33.72
2022-08-17T20:33:29.333Z,29.92
2022-08-17T20:36:20.307Z,29.48
2022-08-17T20:38:54.171Z,34.67
2022-08-17T20:41:26.082Z,36.20
2022-08-17T20:44:09.163Z,32.08
2022-08-17T20:46:59.886Z,32.35
2022-08-17T20:49:41.530Z,33.95
2022-08-17T20:52:13.869Z,35.53
2022-08-17T20:54:50.574Z,34.47
2022-08-17T20:57:56.905Z,36.28
2022-08-17T21:00:46.036Z,40.10
2022-08-17T21:03:50.452Z,37.53
2022-08-17T21:06:24.997Z,35.53
2022-08-17T21:09:01.341Z,41.47
2022-08-17T21:12:04.030Z,39.30
2022-08-17T21:14:47.364Z,40.22
2022-08-17T21:17:51.558Z,39.28
2022-08-17T21:20:32.560Z,40.25
2022-08-17T21:23:29.390Z,40.00
2022-08-17T21:26:20.869Z,39.67
2022-08-17T21:29:29.953Z,43.40
2022-08-17T21:32:19.276Z,42.40
2022-08-17T21:35:29.932Z,46.22
2022-08-17T21:38:06.680Z,44.78
2022-08-17T21:40:37.600Z,51.35
2022-08-17T21:43:22.929Z,50.25
2022-08-17T21:46:00.505Z,46.92
2022-08-17T21:48:32.599Z,52.38
2022-08-17T21:51:12.347Z,51.45
2022-08-17T21:53:47.535Z,52.55
2022-08-17T21:56:26.505Z,53.15
2022-08-17T21:59:01.024Z,53.85
2022-08-17T22:01:34.444Z,53.10
2022-08-17T22:04:11.511Z,57.03
2022-08-17T22:06:52.292Z,53.03
2022-08-17T22:09:29.844Z,53.15
2022-08-17T22:12:11.384Z,57.83
2022-08-17T22:14:53.370Z,57.08
2022-08-17T22:17:26.539Z,58.88
2022-08-17T22:20:01.530Z,55.95
2022-08-17T22:22:57.961Z,59.58
2022-08-17T22:25:27.387Z,57.67
2022-08-17T22:28:00.592Z,56.60
2022-08-17T22:30:37.629Z,59.60
2022-08-17T22:33:33.466Z,58.25
2022-08-17T22:36:25.253Z,58.10
2022-08-17T22:39:00.327Z,56.08
2022-08-17T22:41:39.290Z,56.85
2022-08-17T22:44:19.507Z,57.88
2022-08-17T22:47:06.840Z,55.55
2022-08-17T22:49:53.433Z,52.45
2022-08-17T22:52:36.024Z,55.05
2022-08-17T22:55:28.949Z,54.70
2022-08-17T22:58:11.668Z,54.83
2022-08-17T23:00:45.023Z,65.50
2022-08-17T23:03:20.901Z,65.28
2022-08-17T23:06:05.157Z,70.03
2022-08-17T23:08:43.697Z,67.55
2022-08-17T23:11:16.422Z,66.65
2022-08-17T23:13:46.900Z,70.20
2022-08-17T23:16:17.006Z,76.25
2022-08-17T23:18:50.945Z,70.25
2022-08-17T23:21:26.673Z,72.93
2022-08-17T23:23:59.251Z,75.18
2022-08-17T23:26:33.270Z,75.85
2022-08-17T23:29:04.625Z,69.15
2022-08-17T23:31:35.190Z,68.60
2022-08-17T23:34:09.093Z,70.03
2022-08-17T23:36:39.635Z,70.32
2022-08-17T23:39:10.142Z,69.03
2022-08-17T23:41:42.909Z,67.53
2022-08-17T23:44:14.542Z,64.90
2022-08-17T23:46:44.884Z,65.00
2022-08-17T23:49:14.969Z,63.38
2022-08-17T23:51:45.958Z,63.97
2022-08-17T23:54:22.546Z,60.63
2022-08-17T23:56:55.328Z,62.67
2022-08-17T23:59:28.215Z,62.75
